Time;durP1;ratioP1;P1;durP2;ratioP2;P2;SDS_P1;SDS_P2;PMS_P1;PMS_P2;Temp;Humidity;BMP_temperature;BMP_pressure;BME280_temperature;BME280_humidity;BME280_pressure;Samples;Min_cycle;Max_cycle;Signal;HPM_P1;HPM_P2
2023/08/17 00:02:17;;;;;;;8.93;5.73;;;18.40;99.90;;;;;;5100796;28;20934;-64
2023/08/17 00:04:42;;;;;;;9.23;6.57;;;18.40;99.90;;;;;;5099398;28;20194;-65
2023/08/17 00:07:08;;;;;;;7.37;6.77;;;18.30;99.90;;;;;;5100466;28;20309;-64
2023/08/17 00:09:34;;;;;;;7.00;6.40;;;18.30;99.90;;;;;;5100210;28;20819;-63
2023/08/17 00:11:59;;;;;;;6.20;5.43;;;18.30;99.90;;;;;;5100367;28;20271;-64
2023/08/17 00:14:25;;;;;;;6.70;6.10;;;18.30;99.90;;;;;;5100585;28;20180;-64
2023/08/17 00:16:51;;;;;;;6.07;5.47;;;18.30;99.90;;;;;;5080561;28;20187;-64
2023/08/17 00:19:17;;;;;;;7.47;6.73;;;18.20;99.90;;;;;;5100762;28;20189;-64
2023/08/17 00:21:44;;;;;;;7.10;6.50;;;18.30;99.90;;;;;;5081870;28;20180;-64
2023/08/17 00:24:10;;;;;;;6.73;6.20;;;18.30;99.90;;;;;;5100413;28;20528;-64
2023/08/17 00:26:36;;;;;;;6.80;6.10;;;18.30;99.90;;;;;;5093118;28;20497;-63
2023/08/17 00:29:02;;;;;;;7.00;6.30;;;18.30;99.90;;;;;;5100651;27;20460;-63
2023/08/17 00:31:28;;;;;;;7.07;6.37;;;18.30;99.90;;;;;;5125639;27;20890;-63
2023/08/17 00:33:54;;;;;;;7.23;5.93;;;18.20;99.90;;;;;;5124869;27;20523;-63
2023/08/17 00:36:19;;;;;;;7.27;6.50;;;18.00;99.90;;;;;;5124760;27;20867;-63
2023/08/17 00:38:45;;;;;;;9.50;6.80;;;18.00;99.90;;;;;;5124712;27;20889;-64
2023/08/17 00:41:10;;;;;;;6.00;5.50;;;18.00;99.90;;;;;;5125136;27;20179;-64
2023/08/17 00:43:36;;;;;;;8.40;7.60;;;18.00;99.90;;;;;;5125468;27;20225;-65
2023/08/17 00:46:02;;;;;;;7.50;5.87;;;18.10;99.90;;;;;;5110545;27;20188;-64
2023/08/17 00:48:29;;;;;;;7.90;6.70;;;18.10;99.90;;;;;;5103872;28;20175;-64
2023/08/17 00:50:56;;;;;;;6.47;5.87;;;18.00;99.90;;;;;;5104367;28;20461;-63
2023/08/17 00:53:22;;;;;;;7.40;6.53;;;18.00;99.90;;;;;;5105322;28;20425;-63
2023/08/17 00:55:48;;;;;;;6.20;5.70;;;18.00;99.90;;;;;;5103485;28;20485;-64
2023/08/17 00:58:14;;;;;;;5.77;5.10;;;18.00;99.90;;;;;;5103699;28;20421;-63
2023/08/17 01:00:40;;;;;;;5.40;4.73;;;18.00;99.90;;;;;;5104443;28;20436;-64
2023/08/17 01:03:06;;;;;;;5.00;4.60;;;18.10;99.90;;;;;;5104341;28;20417;-64
2023/08/17 01:05:32;;;;;;;5.53;5.03;;;18.10;99.90;;;;;;5104065;28;20413;-64
2023/08/17 01:07:59;;;;;;;4.70;4.40;;;18.10;99.90;;;;;;5085112;28;20421;-63
2023/08/17 01:10:34;;;;;;;4.63;4.23;;;18.10;99.90;;;;;;5104225;28;20465;-63
2023/08/17 01:13:11;;;;;;;7.70;4.30;;;18.00;99.90;;;;;;5104016;28;20889;-64
2023/08/17 01:15:40;;;;;;;4.40;4.07;;;18.00;99.90;;;;;;5104107;28;20424;-62
2023/08/17 01:18:26;;;;;;;4.00;3.70;;;18.00;99.90;;;;;;5102886;28;20425;-64
2023/08/17 01:20:53;;;;;;;4.10;3.80;;;18.00;99.90;;;;;;5103288;28;20449;-63
2023/08/17 01:23:19;;;;;;;6.13;5.30;;;18.00;99.90;;;;;;5103892;28;20451;-64
2023/08/17 01:25:45;;;;;;;5.27;4.70;;;17.90;99.90;;;;;;5103336;28;20571;-64
2023/08/17 01:28:11;;;;;;;5.17;4.77;;;17.80;99.90;;;;;;5103691;27;20188;-63
2023/08/17 01:30:57;;;;;;;5.20;4.70;;;17.80;99.90;;;;;;5124295;27;20269;-65
2023/08/17 01:33:41;;;;;;;5.53;5.03;;;17.80;99.90;;;;;;5124286;27;20417;-64
2023/08/17 01:36:16;;;;;;;5.93;5.43;;;17.90;99.90;;;;;;5123009;27;20439;-64
2023/08/17 01:38:43;;;;;;;6.03;5.53;;;17.90;99.90;;;;;;5124023;27;20416;-63
2023/08/17 01:41:15;;;;;;;7.43;6.77;;;17.90;99.90;;;;;;5123430;27;20994;-64
2023/08/17 01:43:45;;;;;;;5.67;5.17;;;17.90;99.90;;;;;;5124585;27;20462;-63
2023/08/17 01:46:14;;;;;;;6.63;6.03;;;17.90;99.90;;;;;;5108409;27;20410;-64
2023/08/17 01:48:40;;;;;;;8.03;7.33;;;17.80;99.90;;;;;;5102441;28;20495;-63
2023/08/17 01:51:06;;;;;;;8.73;7.93;;;17.80;99.90;;;;;;5102607;28;20585;-64
2023/08/17 01:53:31;;;;;;;7.93;7.23;;;17.80;99.90;;;;;;5103577;28;20330;-63
2023/08/17 01:55:57;;;;;;;8.03;6.30;;;17.70;99.90;;;;;;5084531;28;20179;-64
2023/08/17 01:58:23;;;;;;;7.63;6.87;;;17.70;99.90;;;;;;5102962;28;20187;-64
2023/08/17 02:00:48;;;;;;;9.10;7.40;;;17.70;99.90;;;;;;5103429;28;20188;-64
2023/08/17 02:03:14;;;;;;;8.30;7.57;;;17.60;99.90;;;;;;5102813;28;20206;-64
2023/08/17 02:05:47;;;;;;;8.00;7.20;;;17.60;99.90;;;;;;5102786;28;20180;-64
2023/08/17 02:08:13;;;;;;;9.83;8.63;;;17.60;99.90;;;;;;5102035;28;20709;-65
2023/08/17 02:10:38;;;;;;;9.33;8.23;;;17.60;99.90;;;;;;5103065;28;20461;-64
2023/08/17 02:13:04;;;;;;;10.03;8.60;;;17.70;99.90;;;;;;5084311;28;20418;-63
2023/08/17 02:15:30;;;;;;;10.17;9.23;;;17.70;99.90;;;;;;5102947;28;20175;-64
2023/08/17 02:17:59;;;;;;;11.87;10.70;;;17.70;99.90;;;;;;5102512;28;20179;-63
2023/08/17 02:20:25;;;;;;;11.77;10.60;;;17.70;99.90;;;;;;5102833;28;20413;-63
2023/08/17 02:22:50;;;;;;;12.27;11.17;;;17.70;99.90;;;;;;5103045;28;20418;-65
2023/08/17 02:25:16;;;;;;;16.80;12.80;;;17.80;99.90;;;;;;5102127;28;20182;-63
2023/08/17 02:27:42;;;;;;;13.50;12.20;;;17.80;99.90;;;;;;5102334;28;20212;-64
2023/08/17 02:30:08;;;;;;;12.77;11.67;;;17.70;99.90;;;;;;5119540;27;20287;-63
2023/08/17 02:32:33;;;;;;;12.17;11.07;;;17.60;99.90;;;;;;5123081;27;20712;-63
2023/08/17 02:34:59;;;;;;;11.63;10.50;;;17.60;99.90;;;;;;5122747;27;20421;-64
2023/08/17 02:37:25;;;;;;;13.57;11.33;;;17.50;99.90;;;;;;5122153;27;20232;-64
2023/08/17 02:39:50;;;;;;;12.57;11.27;;;17.50;99.90;;;;;;5123177;27;20255;-63
2023/08/17 02:42:16;;;;;;;13.03;11.83;;;17.50;99.90;;;;;;5122062;27;20175;-64
2023/08/17 02:44:42;;;;;;;12.00;11.00;;;17.50;99.90;;;;;;5120098;27;20696;-64
2023/08/17 02:47:07;;;;;;;11.60;10.60;;;17.60;99.90;;;;;;5099948;28;20270;-64
2023/08/17 02:49:33;;;;;;;14.30;11.57;;;17.60;99.90;;;;;;5102645;28;20224;-65
2023/08/17 02:51:59;;;;;;;13.40;12.30;;;17.60;99.90;;;;;;5101889;28;20175;-64
2023/08/17 02:54:24;;;;;;;13.00;11.70;;;17.70;99.90;;;;;;5101693;28;20194;-64
2023/08/17 02:56:50;;;;;;;14.93;12.43;;;17.70;99.90;;;;;;5101112;28;20180;-63
2023/08/17 02:59:16;;;;;;;13.73;12.43;;;17.70;99.90;;;;;;5099526;28;20172;-64
2023/08/17 03:01:42;;;;;;;13.40;12.10;;;17.70;99.90;;;;;;5102337;28;20451;-64
2023/08/17 03:04:07;;;;;;;12.00;10.83;;;17.60;99.90;;;;;;5101327;28;20203;-63
2023/08/17 03:06:33;;;;;;;13.30;11.90;;;17.60;99.90;;;;;;5100735;28;20195;-65
2023/08/17 03:08:59;;;;;;;12.13;11.03;;;17.60;99.90;;;;;;5101988;28;20998;-64
2023/08/17 03:11:24;;;;;;;12.50;11.20;;;17.60;99.90;;;;;;5101518;28;20218;-64
2023/08/17 03:13:50;;;;;;;12.23;11.00;;;17.50;99.90;;;;;;5102214;28;20191;-64
2023/08/17 03:16:16;;;;;;;12.23;11.00;;;17.50;99.90;;;;;;5100475;28;20179;-63
2023/08/17 03:18:42;;;;;;;12.43;11.13;;;17.60;99.90;;;;;;5101500;28;20263;-64
2023/08/17 03:21:08;;;;;;;13.10;11.80;;;17.50;99.90;;;;;;5101355;28;20634;-63
2023/08/17 03:23:34;;;;;;;13.20;11.80;;;17.50;99.90;;;;;;5101297;28;20513;-64
2023/08/17 03:26:00;;;;;;;10.80;9.80;;;17.60;99.90;;;;;;5101672;28;20183;-63
2023/08/17 03:28:26;;;;;;;12.73;11.40;;;17.50;99.90;;;;;;5103097;27;20175;-63
2023/08/17 03:30:55;;;;;;;10.27;9.30;;;17.40;99.90;;;;;;5122051;27;20311;-63
2023/08/17 03:33:21;;;;;;;10.60;9.60;;;17.50;99.90;;;;;;5121074;27;20682;-64
2023/08/17 03:35:47;;;;;;;10.60;9.60;;;17.40;99.90;;;;;;5121839;27;20436;-63
2023/08/17 03:38:13;;;;;;;10.30;9.30;;;17.40;99.90;;;;;;5121083;27;20182;-64
2023/08/17 03:40:39;;;;;;;9.93;8.97;;;17.40;99.90;;;;;;5121820;27;20201;-64
2023/08/17 03:43:04;;;;;;;9.80;8.90;;;17.40;99.90;;;;;;5122006;27;20802;-64
2023/08/17 03:45:30;;;;;;;10.63;9.37;;;17.40;99.90;;;;;;5111324;27;20179;-64
2023/08/17 03:47:56;;;;;;;10.07;8.40;;;17.40;99.90;;;;;;5100958;28;20228;-64
2023/08/17 03:50:22;;;;;;;10.00;9.03;;;17.40;99.90;;;;;;5100205;28;20472;-64
2023/08/17 03:52:48;;;;;;;11.80;8.73;;;17.30;99.90;;;;;;5101594;28;20373;-65
2023/08/17 03:55:13;;;;;;;9.80;8.80;;;17.40;99.90;;;;;;5101109;28;20295;-63
2023/08/17 03:57:39;;;;;;;12.03;9.97;;;17.40;99.90;;;;;;5100036;28;20387;-64
2023/08/17 04:00:06;;;;;;;10.07;9.17;;;17.40;99.90;;;;;;5099933;28;20587;-63
2023/08/17 04:02:32;;;;;;;11.23;9.70;;;17.40;99.90;;;;;;5100114;28;20966;-64
2023/08/17 04:04:57;;;;;;;11.87;10.67;;;17.40;99.90;;;;;;5100911;28;20410;-64
2023/08/17 04:07:23;;;;;;;11.07;9.93;;;17.40;99.90;;;;;;5100003;28;20176;-63
2023/08/17 04:09:49;;;;;;;10.87;9.77;;;17.40;99.90;;;;;;5101052;28;20611;-64
2023/08/17 04:12:15;;;;;;;11.10;10.00;;;17.40;99.90;;;;;;5101133;28;20167;-64
2023/08/17 04:14:40;;;;;;;13.53;11.33;;;17.40;99.90;;;;;;5100388;28;20289;-64
2023/08/17 04:17:06;;;;;;;12.37;11.13;;;17.40;99.90;;;;;;5100671;28;20207;-63
2023/08/17 04:19:32;;;;;;;13.40;11.40;;;17.40;99.90;;;;;;5100914;28;20646;-63
2023/08/17 04:21:58;;;;;;;12.87;11.67;;;17.30;99.90;;;;;;5100651;28;20211;-63
2023/08/17 04:24:24;;;;;;;13.30;12.00;;;17.30;99.90;;;;;;5100482;28;20537;-64
2023/08/17 04:26:49;;;;;;;13.90;12.70;;;17.30;99.90;;;;;;5099897;28;20219;-63
2023/08/17 04:29:15;;;;;;;14.63;13.33;;;17.30;99.90;;;;;;5110436;28;20183;-64
2023/08/17 04:31:41;;;;;;;14.40;12.63;;;17.30;99.90;;;;;;5120862;28;21307;-63
2023/08/17 04:34:07;;;;;;;15.07;13.47;;;17.30;99.90;;;;;;5121647;28;20199;-64
2023/08/17 04:36:33;;;;;;;15.17;13.67;;;17.30;99.90;;;;;;5119759;28;20190;-64
2023/08/17 04:38:58;;;;;;;14.77;13.37;;;17.40;99.90;;;;;;5121201;28;20179;-63
2023/08/17 04:41:24;;;;;;;16.43;14.80;;;17.40;99.90;;;;;;5121906;28;20424;-63
2023/08/17 04:43:50;;;;;;;18.13;15.07;;;17.40;99.90;;;;;;5121356;28;20175;-64
2023/08/17 04:46:16;;;;;;;15.27;13.70;;;17.40;99.90;;;;;;5105229;28;20421;-64
2023/08/17 04:48:41;;;;;;;15.27;13.77;;;17.40;99.90;;;;;;5099815;28;20301;-64
2023/08/17 04:51:07;;;;;;;14.67;13.37;;;17.30;99.90;;;;;;5100574;28;20304;-63
2023/08/17 04:53:32;;;;;;;13.47;12.27;;;17.40;99.90;;;;;;5095217;28;20193;-62
2023/08/17 04:56:02;;;;;;;17.73;14.53;;;17.30;99.90;;;;;;5089757;28;20206;-64
2023/08/17 04:58:28;;;;;;;16.07;13.40;;;17.30;99.90;;;;;;5097390;28;20192;-62
2023/08/17 05:00:54;;;;;;;14.40;12.53;;;17.30;99.90;;;;;;5093266;28;20467;-64
2023/08/17 05:03:19;;;;;;;14.00;12.80;;;17.30;99.90;;;;;;5100581;28;20184;-63
2023/08/17 05:05:45;;;;;;;14.17;12.77;;;17.40;99.90;;;;;;5095534;28;20252;-62
2023/08/17 05:08:11;;;;;;;14.37;12.97;;;17.30;99.90;;;;;;5099353;28;20233;-64
2023/08/17 05:10:36;;;;;;;15.13;13.73;;;17.40;99.90;;;;;;5097279;28;20227;-63
2023/08/17 05:13:02;;;;;;;15.17;13.60;;;17.40;99.90;;;;;;5084281;28;20808;-64
2023/08/17 05:15:28;;;;;;;16.20;14.60;;;17.30;99.90;;;;;;5083415;28;20176;-63
2023/08/17 05:17:53;;;;;;;16.43;14.70;;;17.30;99.90;;;;;;5082597;28;20425;-64
2023/08/17 05:20:20;;;;;;;15.13;13.63;;;17.30;99.90;;;;;;5088288;28;20863;-64
2023/08/17 05:22:47;;;;;;;15.73;14.10;;;17.30;99.90;;;;;;5102872;28;20298;-64
2023/08/17 05:25:12;;;;;;;17.57;15.30;;;17.30;99.90;;;;;;5099423;28;20437;-63
2023/08/17 05:27:38;;;;;;;16.07;13.40;;;17.30;99.90;;;;;;5102376;28;21077;-63
2023/08/17 05:30:04;;;;;;;17.00;15.20;;;17.40;99.90;;;;;;5103605;28;20211;-64
2023/08/17 05:32:30;;;;;;;16.97;15.20;;;17.40;99.90;;;;;;5103626;28;20179;-64
2023/08/17 05:34:57;;;;;;;18.90;15.57;;;17.40;99.90;;;;;;5102701;28;20441;-63
2023/08/17 05:37:22;;;;;;;17.63;15.57;;;17.40;99.90;;;;;;5099350;28;20281;-64
2023/08/17 05:39:48;;;;;;;16.23;14.53;;;17.40;99.90;;;;;;5102977;28;20417;-63
2023/08/17 05:42:14;;;;;;;17.07;15.23;;;17.40;99.90;;;;;;5103713;28;20861;-64
2023/08/17 05:44:39;;;;;;;19.67;16.53;;;17.50;99.90;;;;;;5103177;28;20276;-62
2023/08/17 05:47:05;;;;;;;18.80;16.80;;;17.40;99.90;;;;;;5102863;28;20164;-64
2023/08/17 05:49:31;;;;;;;17.47;15.73;;;17.50;99.90;;;;;;5097111;28;20213;-64
2023/08/17 05:51:56;;;;;;;18.93;17.10;;;17.50;99.90;;;;;;5102361;28;20194;-65
2023/08/17 05:54:22;;;;;;;18.27;16.47;;;17.50;99.90;;;;;;5099156;28;20184;-64
2023/08/17 05:56:48;;;;;;;19.13;17.23;;;17.50;99.90;;;;;;5101193;28;20278;-63
2023/08/17 05:59:14;;;;;;;21.10;18.97;;;17.50;99.90;;;;;;5085123;28;20561;-63
2023/08/17 06:01:40;;;;;;;20.80;18.40;;;17.50;99.90;;;;;;5103365;28;20172;-64
2023/08/17 06:04:06;;;;;;;20.23;18.13;;;17.50;99.90;;;;;;5102758;28;20442;-64
2023/08/17 06:06:33;;;;;;;23.83;20.00;;;17.50;99.90;;;;;;5100455;28;20437;-63
2023/08/17 06:08:58;;;;;;;21.43;19.10;;;17.40;99.90;;;;;;5099236;28;20429;-63
2023/08/17 06:11:24;;;;;;;20.23;18.10;;;17.50;99.90;;;;;;5101339;28;20990;-63
2023/08/17 06:13:50;;;;;;;19.57;17.47;;;17.50;99.90;;;;;;5093570;28;20275;-63
2023/08/17 06:16:16;;;;;;;20.07;17.97;;;17.50;99.90;;;;;;5101665;28;20432;-63
2023/08/17 06:18:42;;;;;;;21.60;18.80;;;17.60;99.90;;;;;;5092847;28;20188;-62
2023/08/17 06:21:08;;;;;;;20.00;17.40;;;17.60;99.90;;;;;;5099812;28;20639;-62
2023/08/17 06:23:34;;;;;;;19.70;17.00;;;17.60;99.90;;;;;;5095247;28;20496;-63
2023/08/17 06:26:00;;;;;;;19.53;16.60;;;17.50;99.90;;;;;;5091009;28;20454;-62
2023/08/17 06:28:27;;;;;;;19.03;17.07;;;17.50;99.90;;;;;;5095250;27;20208;-62
2023/08/17 06:30:56;;;;;;;22.10;19.73;;;17.50;99.90;;;;;;5097718;28;20797;-63
2023/08/17 06:33:22;;;;;;;20.80;18.67;;;17.50;99.90;;;;;;5102956;28;20424;-63
2023/08/17 06:35:49;;;;;;;20.63;18.50;;;17.40;99.90;;;;;;5100422;28;20812;-62
2023/08/17 06:38:14;;;;;;;23.93;19.57;;;17.40;99.90;;;;;;5101413;28;20410;-62
2023/08/17 06:40:41;;;;;;;21.47;18.17;;;17.40;99.90;;;;;;5102712;28;20405;-62
2023/08/17 06:43:06;;;;;;;21.83;18.87;;;17.40;99.90;;;;;;5101496;28;20536;-62
2023/08/17 06:45:33;;;;;;;21.80;19.20;;;17.40;99.90;;;;;;5102136;28;20451;-62
2023/08/17 06:47:58;;;;;;;25.00;21.23;;;17.40;99.90;;;;;;5101744;28;20186;-62
2023/08/17 06:50:26;;;;;;;23.93;17.20;;;17.40;99.90;;;;;;5102101;28;20461;-62
2023/08/17 06:52:52;;;;;;;24.13;21.07;;;17.40;99.90;;;;;;5102164;28;20175;-63
2023/08/17 06:55:17;;;;;;;24.30;19.97;;;17.40;99.90;;;;;;5101414;28;20464;-62
2023/08/17 06:57:44;;;;;;;21.63;18.70;;;17.40;99.90;;;;;;5101962;28;20176;-62
2023/08/17 07:00:11;;;;;;;23.27;20.67;;;17.50;99.90;;;;;;5086065;28;20327;-62
2023/08/17 07:02:37;;;;;;;21.97;19.83;;;17.50;99.90;;;;;;5081705;28;21201;-62
2023/08/17 07:05:03;;;;;;;21.70;19.30;;;17.40;99.90;;;;;;5080810;28;20471;-62
2023/08/17 07:07:31;;;;;;;21.60;19.13;;;17.40;99.90;;;;;;5080974;28;20238;-62
2023/08/17 07:09:57;;;;;;;20.27;18.27;;;17.40;99.90;;;;;;5085240;28;21157;-62
2023/08/17 07:12:26;;;;;;;23.57;18.10;;;17.40;99.90;;;;;;5081486;28;20422;-61
2023/08/17 07:14:53;;;;;;;20.73;18.33;;;17.40;99.90;;;;;;5063245;28;20438;-62
2023/08/17 07:17:19;;;;;;;20.27;18.00;;;17.40;99.90;;;;;;5079286;28;20439;-63
2023/08/17 07:19:45;;;;;;;19.27;17.27;;;17.40;99.90;;;;;;5081163;28;20510;-62
2023/08/17 07:22:10;;;;;;;19.87;17.87;;;17.40;99.90;;;;;;5060584;28;20173;-62
2023/08/17 07:24:36;;;;;;;22.60;19.17;;;17.50;99.90;;;;;;5081022;28;20182;-62
2023/08/17 07:27:02;;;;;;;20.40;18.20;;;17.50;99.90;;;;;;5080597;28;20178;-61
2023/08/17 07:29:27;;;;;;;20.43;18.23;;;17.50;99.90;;;;;;5104315;27;20185;-61
2023/08/17 07:31:54;;;;;;;21.30;18.80;;;17.50;99.90;;;;;;5122519;27;20182;-62
2023/08/17 07:34:20;;;;;;;23.40;19.83;;;17.50;99.90;;;;;;5120882;27;20183;-62
2023/08/17 07:36:46;;;;;;;26.63;22.30;;;17.60;99.90;;;;;;5120861;27;20436;-62
2023/08/17 07:39:11;;;;;;;30.83;24.10;;;17.60;99.90;;;;;;5121341;27;20910;-64
2023/08/17 07:41:37;;;;;;;33.50;25.07;;;17.60;99.90;;;;;;5121956;27;20171;-62
2023/08/17 07:44:03;;;;;;;28.63;22.63;;;17.60;99.90;;;;;;5121273;27;20186;-63
2023/08/17 07:46:28;;;;;;;23.20;20.80;;;17.60;99.90;;;;;;5102973;27;20215;-63
2023/08/17 07:48:54;;;;;;;26.80;20.03;;;17.60;99.90;;;;;;5101524;28;20410;-62
2023/08/17 07:51:20;;;;;;;20.27;16.97;;;17.70;99.90;;;;;;5100837;28;20724;-62
2023/08/17 07:53:46;;;;;;;20.93;16.10;;;17.70;99.90;;;;;;5101392;28;20291;-63
2023/08/17 07:56:11;;;;;;;23.73;16.20;;;17.70;99.90;;;;;;5100095;28;20183;-63
2023/08/17 07:58:37;;;;;;;20.10;15.20;;;17.70;99.90;;;;;;5100863;28;20175;-63
2023/08/17 08:01:03;;;;;;;17.07;15.40;;;17.80;99.90;;;;;;5100282;28;20210;-62
2023/08/17 08:03:28;;;;;;;16.50;14.80;;;17.80;99.90;;;;;;5101083;28;20223;-62
2023/08/17 08:05:54;;;;;;;19.67;15.87;;;17.90;99.90;;;;;;5100353;28;20211;-63
2023/08/17 08:08:20;;;;;;;15.03;13.53;;;17.80;99.90;;;;;;5099833;28;20244;-63
2023/08/17 08:10:46;;;;;;;17.73;15.23;;;17.90;99.90;;;;;;5101421;28;20221;-63
2023/08/17 08:13:11;;;;;;;16.93;14.10;;;17.80;99.90;;;;;;5100792;28;20179;-63
2023/08/17 08:15:37;;;;;;;15.70;13.73;;;17.80;99.90;;;;;;5100698;28;20422;-63
2023/08/17 08:18:03;;;;;;;17.03;12.43;;;17.90;99.90;;;;;;5100419;28;20617;-63
2023/08/17 08:20:29;;;;;;;16.47;13.30;;;17.90;99.90;;;;;;5100395;28;20196;-63
2023/08/17 08:22:54;;;;;;;15.80;13.50;;;17.90;99.90;;;;;;5082055;28;20699;-63
2023/08/17 08:25:20;;;;;;;16.77;14.73;;;17.80;99.90;;;;;;5099898;28;20175;-63
2023/08/17 08:27:46;;;;;;;15.53;14.00;;;17.70;99.90;;;;;;5100333;28;20172;-62
2023/08/17 08:30:12;;;;;;;18.10;15.17;;;17.70;99.90;;;;;;5108189;28;20208;-62
2023/08/17 08:32:37;;;;;;;18.13;15.97;;;17.80;99.90;;;;;;5093617;28;20180;-62
2023/08/17 08:35:03;;;;;;;17.83;16.03;;;17.80;99.90;;;;;;5089279;28;20175;-64
2023/08/17 08:37:29;;;;;;;17.40;15.33;;;17.80;99.90;;;;;;5091482;28;20223;-63
2023/08/17 08:39:55;;;;;;;18.07;15.97;;;17.80;99.90;;;;;;5088787;28;20182;-62
2023/08/17 08:42:22;;;;;;;19.13;16.80;;;17.80;99.90;;;;;;5069458;28;20181;-63
2023/08/17 08:44:49;;;;;;;18.53;15.10;;;17.80;99.90;;;;;;5095881;28;20416;-62
2023/08/17 08:47:19;;;;;;;16.83;14.97;;;17.70;99.90;;;;;;5096592;28;20410;-62
2023/08/17 08:50:02;;;;;;;19.33;15.97;;;17.80;99.90;;;;;;5094023;28;20489;-63
2023/08/17 08:52:44;;;;;;;18.90;15.80;;;17.80;99.90;;;;;;5091967;28;20437;-62
2023/08/17 08:55:19;;;;;;;15.80;14.10;;;17.90;99.90;;;;;;5100054;28;20976;-62
2023/08/17 08:57:46;;;;;;;19.20;16.70;;;18.00;99.90;;;;;;5103013;28;20444;-63
2023/08/17 09:00:13;;;;;;;19.67;17.77;;;18.00;99.90;;;;;;5084664;28;20422;-63
2023/08/17 09:02:39;;;;;;;20.87;17.67;;;18.00;99.90;;;;;;5102488;28;20428;-62
2023/08/17 09:05:10;;;;;;;19.87;17.90;;;18.10;99.90;;;;;;5103970;28;20414;-63
2023/08/17 09:07:37;;;;;;;19.10;16.43;;;18.10;99.90;;;;;;5102980;28;20414;-63
2023/08/17 09:10:03;;;;;;;26.07;17.30;;;18.10;99.90;;;;;;5103828;28;20814;-62
2023/08/17 09:12:30;;;;;;;19.07;15.70;;;18.10;99.90;;;;;;5103019;28;21312;-62
2023/08/17 09:14:56;;;;;;;17.37;15.57;;;18.20;99.90;;;;;;5104325;28;20417;-62
2023/08/17 09:17:28;;;;;;;20.57;17.20;;;18.20;99.90;;;;;;5105806;28;20405;-62
2023/08/17 09:19:54;;;;;;;18.13;15.40;;;18.30;99.90;;;;;;5106866;28;20414;-62
2023/08/17 09:22:24;;;;;;;19.53;16.70;;;18.30;99.90;;;;;;5105841;28;20492;-62
2023/08/17 09:24:51;;;;;;;20.37;18.23;;;18.30;99.90;;;;;;5105335;28;20425;-63
2023/08/17 09:27:17;;;;;;;22.90;18.83;;;18.30;99.90;;;;;;5105763;28;20775;-63
2023/08/17 09:29:45;;;;;;;23.57;18.10;;;18.30;99.90;;;;;;5119100;27;20421;-63
2023/08/17 09:32:13;;;;;;;22.03;17.43;;;18.30;99.90;;;;;;5126819;27;20424;-63
2023/08/17 09:34:42;;;;;;;19.67;17.03;;;18.30;99.90;;;;;;5125564;27;20428;-64
2023/08/17 09:37:08;;;;;;;19.80;16.80;;;18.30;99.90;;;;;;5119485;27;20802;-63
2023/08/17 09:39:34;;;;;;;19.07;16.67;;;18.40;99.90;;;;;;5101512;28;20410;-63
2023/08/17 09:42:00;;;;;;;26.50;18.50;;;18.40;99.90;;;;;;5093382;28;20840;-63
2023/08/17 09:44:26;;;;;;;21.20;15.90;;;18.40;99.90;;;;;;5098315;28;20917;-62
2023/08/17 09:46:56;;;;;;;18.23;15.80;;;18.40;99.90;;;;;;5092094;28;20959;-63
2023/08/17 09:49:24;;;;;;;23.27;17.33;;;18.50;99.90;;;;;;5093589;28;20526;-63
2023/08/17 09:51:52;;;;;;;18.23;16.27;;;18.40;99.90;;;;;;5083617;28;21610;-64
2023/08/17 09:54:23;;;;;;;17.87;15.93;;;18.50;99.90;;;;;;5099552;28;20454;-62
2023/08/17 09:56:52;;;;;;;20.57;18.20;;;18.50;99.90;;;;;;5100488;28;20963;-63
2023/08/17 09:59:19;;;;;;;22.40;19.10;;;18.50;99.90;;;;;;5103849;28;20439;-63
2023/08/17 10:01:48;;;;;;;21.10;18.80;;;18.60;99.90;;;;;;5103953;28;20547;-63
2023/08/17 10:04:19;;;;;;;22.47;20.10;;;18.60;99.90;;;;;;5105305;28;20482;-64
2023/08/17 10:06:46;;;;;;;25.40;20.83;;;18.70;99.90;;;;;;5103282;28;20418;-64
2023/08/17 10:09:16;;;;;;;26.00;21.60;;;18.70;99.90;;;;;;5105610;28;20475;-64
2023/08/17 10:11:45;;;;;;;26.37;20.77;;;18.70;99.90;;;;;;5104322;28;20465;-62
2023/08/17 10:14:17;;;;;;;24.57;22.07;;;18.60;99.90;;;;;;5105436;28;20418;-63
2023/08/17 10:16:53;;;;;;;21.33;19.03;;;18.70;99.90;;;;;;5103458;28;20413;-63
2023/08/17 10:19:51;;;;;;;20.60;18.40;;;18.70;99.90;;;;;;5105411;28;20425;-63
2023/08/17 10:22:23;;;;;;;21.73;19.40;;;18.70;99.90;;;;;;5104937;28;20425;-63
2023/08/17 10:24:50;;;;;;;23.43;20.90;;;18.80;99.90;;;;;;5104269;28;20754;-64
2023/08/17 10:27:17;;;;;;;23.23;20.57;;;18.80;99.90;;;;;;5104313;28;20418;-62
2023/08/17 10:29:44;;;;;;;23.87;21.37;;;18.80;99.90;;;;;;5104568;28;20406;-64
2023/08/17 10:32:12;;;;;;;22.83;20.33;;;18.90;99.90;;;;;;5086707;28;20496;-63
2023/08/17 10:34:38;;;;;;;22.80;20.40;;;18.90;99.90;;;;;;5104125;28;20508;-63
2023/08/17 10:37:05;;;;;;;24.40;21.20;;;18.90;99.90;;;;;;5099299;28;20475;-63
2023/08/17 10:39:31;;;;;;;22.43;18.30;;;19.00;99.90;;;;;;5103875;28;20482;-63
2023/08/17 10:41:58;;;;;;;24.73;20.73;;;19.00;99.90;;;;;;5103381;28;20460;-63
2023/08/17 10:44:47;;;;;;;19.77;17.77;;;19.00;99.90;;;;;;5104536;28;20716;-64
2023/08/17 10:47:20;;;;;;;20.57;18.43;;;19.00;99.90;;;;;;5103412;28;20978;-63
2023/08/17 10:49:47;;;;;;;19.93;16.93;;;19.00;99.90;;;;;;5096046;28;20427;-63
2023/08/17 10:52:13;;;;;;;17.33;15.50;;;19.00;99.90;;;;;;5103452;28;20421;-64
2023/08/17 10:54:43;;;;;;;16.70;14.90;;;19.10;99.90;;;;;;5098550;28;20437;-62
2023/08/17 10:57:39;;;;;;;20.13;16.00;;;19.20;99.90;;;;;;5100262;28;20192;-63
2023/08/17 11:00:13;;;;;;;15.87;14.07;;;19.20;99.90;;;;;;5066894;28;20434;-63
2023/08/17 11:02:39;;;;;;;14.50;11.57;;;19.20;99.90;;;;;;5075091;28;20420;-63
2023/08/17 11:05:07;;;;;;;13.00;11.60;;;19.30;99.90;;;;;;5098922;28;20999;-63
2023/08/17 11:07:45;;;;;;;12.27;11.00;;;19.40;99.90;;;;;;5099482;28;20438;-63
2023/08/17 11:10:31;;;;;;;12.90;11.70;;;19.40;99.90;;;;;;5094227;28;21043;-62
2023/08/17 11:13:01;;;;;;;12.13;10.90;;;19.50;99.90;;;;;;5100103;28;20440;-63
2023/08/17 11:15:44;;;;;;;13.50;12.10;;;19.50;99.90;;;;;;5098312;28;20454;-63
2023/08/17 11:18:11;;;;;;;12.47;11.13;;;19.60;99.90;;;;;;5089386;28;20536;-62
2023/08/17 11:20:40;;;;;;;12.70;11.50;;;19.70;99.90;;;;;;5100633;28;20787;-63
2023/08/17 11:23:07;;;;;;;11.70;10.57;;;19.80;99.90;;;;;;5090009;28;20770;-62
2023/08/17 11:25:36;;;;;;;11.70;10.60;;;19.80;99.90;;;;;;5100643;28;20425;-64
2023/08/17 11:28:02;;;;;;;10.13;8.90;;;19.90;99.90;;;;;;5094268;28;20505;-63
2023/08/17 11:30:29;;;;;;;9.67;8.77;;;19.90;99.90;;;;;;5096927;28;20493;-62
2023/08/17 11:32:56;;;;;;;9.57;8.60;;;19.80;99.90;;;;;;5088740;28;20438;-63
2023/08/17 11:35:22;;;;;;;10.70;9.80;;;19.90;99.90;;;;;;5098468;28;20476;-63
2023/08/17 11:37:49;;;;;;;12.33;11.13;;;19.90;99.90;;;;;;5099639;28;20417;-62
2023/08/17 11:40:15;;;;;;;15.77;12.33;;;19.90;99.90;;;;;;5100414;28;20425;-63
2023/08/17 11:42:42;;;;;;;14.10;12.70;;;19.90;99.90;;;;;;5100967;28;20426;-64
2023/08/17 11:45:11;;;;;;;11.33;10.00;;;19.90;99.90;;;;;;5098878;28;20429;-63
2023/08/17 11:47:41;;;;;;;11.00;9.63;;;19.80;99.90;;;;;;5100358;28;20429;-64
2023/08/17 11:50:09;;;;;;;10.57;9.53;;;19.70;99.90;;;;;;5098525;28;20457;-63
2023/08/17 11:52:38;;;;;;;10.93;9.93;;;19.70;99.90;;;;;;5099341;28;20430;-63
2023/08/17 11:55:10;;;;;;;13.10;10.53;;;19.70;99.90;;;;;;5099473;28;20464;-62
2023/08/17 11:57:37;;;;;;;11.60;10.50;;;19.70;99.90;;;;;;5096225;28;20514;-63
2023/08/17 12:00:09;;;;;;;11.60;10.60;;;19.70;99.90;;;;;;5098028;28;20414;-63
2023/08/17 12:02:41;;;;;;;12.07;10.90;;;19.70;99.90;;;;;;5100552;28;20448;-63
2023/08/17 12:05:09;;;;;;;10.97;9.87;;;19.70;99.90;;;;;;5099732;28;20528;-63
2023/08/17 12:07:35;;;;;;;12.00;10.40;;;19.70;99.90;;;;;;5099762;28;20779;-63
2023/08/17 12:10:03;;;;;;;13.80;12.50;;;19.80;99.90;;;;;;5099327;28;20449;-63
2023/08/17 12:12:29;;;;;;;16.43;13.80;;;19.70;99.90;;;;;;5100306;28;20460;-64
2023/08/17 12:14:54;;;;;;;22.57;18.90;;;19.70;99.90;;;;;;5099814;28;20520;-64
2023/08/17 12:17:21;;;;;;;23.23;20.57;;;19.70;99.90;;;;;;5099169;28;20448;-63
2023/08/17 12:19:53;;;;;;;24.70;22.10;;;19.70;99.90;;;;;;5101293;28;20232;-64
2023/08/17 12:22:19;;;;;;;31.40;25.87;;;19.70;99.90;;;;;;5104458;28;20414;-63
2023/08/17 12:24:45;;;;;;;27.67;23.67;;;19.70;99.90;;;;;;5104401;28;20474;-64
2023/08/17 12:27:11;;;;;;;26.53;23.27;;;19.70;99.90;;;;;;5103142;28;20192;-62
2023/08/17 12:29:50;;;;;;;29.13;25.80;;;19.60;99.90;;;;;;5112317;27;20657;-62
2023/08/17 12:32:20;;;;;;;33.27;28.00;;;19.70;99.90;;;;;;5103846;28;20418;-64